createdAt,value
2019-03-26T00:02:26.359Z,102381.24
2019-03-26T00:05:30.732Z,102377.84
2019-03-26T00:08:35.087Z,102377.29
2019-03-26T00:11:40.220Z,102368.43
2019-03-26T00:14:44.612Z,102364.53
2019-03-26T00:17:49.019Z,102356.88
2019-03-26T00:20:53.421Z,102360.23
2019-03-26T00:23:57.837Z,102357.65
2019-03-26T00:27:02.281Z,102355.94
2019-03-26T00:30:06.909Z,102346.52
2019-03-26T00:33:11.311Z,102359.85
2019-03-26T00:36:15.697Z,102356.77
2019-03-26T00:39:20.079Z,102351.27
2019-03-26T00:42:24.430Z,102364.94
2019-03-26T00:45:28.798Z,102376.38
2019-03-26T00:48:33.241Z,102376.23
2019-03-26T00:51:37.592Z,102374.14
2019-03-26T00:54:42.018Z,102363.62
2019-03-26T00:57:46.380Z,102366.03
2019-03-26T01:00:50.761Z,102370.20
2019-03-26T01:03:55.302Z,102366.73
2019-03-26T01:06:59.753Z,102369.02
2019-03-26T01:10:04.912Z,102365.18
2019-03-26T01:13:09.273Z,102361.59
2019-03-26T01:16:13.639Z,102359.42
2019-03-26T01:19:17.978Z,102365.04
2019-03-26T01:22:22.380Z,102361.45
2019-03-26T01:25:26.817Z,102359.42
2019-03-26T01:28:31.181Z,102357.44
2019-03-26T01:31:35.759Z,102361.04
2019-03-26T01:34:45.863Z,102349.52
2019-03-26T01:37:46.293Z,102348.64
2019-03-26T01:40:50.753Z,102353.80
2019-03-26T01:43:55.186Z,102352.53
2019-03-26T01:46:59.530Z,102358.20
2019-03-26T01:50:04.149Z,102358.05
2019-03-26T01:53:08.540Z,102349.69
2019-03-26T01:56:12.988Z,102348.13
2019-03-26T01:59:17.503Z,102344.54
2019-03-26T02:02:21.871Z,102351.42
2019-03-26T02:05:26.268Z,102343.44
2019-03-26T02:08:30.739Z,102335.08
2019-03-26T02:11:35.232Z,102341.92
2019-03-26T02:14:39.657Z,102334.16
2019-03-26T02:17:44.007Z,102330.67
2019-03-26T02:20:48.384Z,102333.61
2019-03-26T02:23:52.741Z,102324.37
2019-03-26T02:26:57.185Z,102319.69
2019-03-26T02:30:01.543Z,102322.86
2019-03-26T02:33:05.985Z,102321.23
2019-03-26T02:36:10.359Z,102310.02
2019-03-26T02:39:14.718Z,102311.07
2019-03-26T02:42:19.087Z,102300.81
2019-03-26T02:45:23.518Z,102309.25
2019-03-26T02:48:27.867Z,102308.55
2019-03-26T02:51:32.240Z,102300.07
2019-03-26T02:54:36.722Z,102297.27
2019-03-26T02:57:41.096Z,102296.36
2019-03-26T03:00:45.420Z,102284.09
2019-03-26T03:03:49.873Z,102286.60
2019-03-26T03:06:54.226Z,102273.09
2019-03-26T03:09:58.654Z,102281.90
2019-03-26T03:13:03.119Z,102275.50
2019-03-26T03:16:07.573Z,102283.48
2019-03-26T03:19:15.596Z,102283.66
2019-03-26T03:22:17.993Z,102284.91
2019-03-26T03:25:22.454Z,102289.94
2019-03-26T03:28:26.858Z,102288.09
2019-03-26T03:31:31.214Z,102295.10
2019-03-26T03:34:35.555Z,102292.33
2019-03-26T03:37:39.919Z,102296.88
2019-03-26T03:40:44.359Z,102286.11
2019-03-26T03:43:48.715Z,102288.06
2019-03-26T03:46:54.139Z,102282.23
2019-03-26T03:49:59.852Z,102281.70
2019-03-26T03:53:05.457Z,102292.33
2019-03-26T03:56:11.795Z,102272.93
2019-03-26T03:59:17.327Z,102271.13
2019-03-26T04:02:21.711Z,102274.63
2019-03-26T04:05:26.069Z,102270.04
2019-03-26T04:08:30.439Z,102267.86
2019-03-26T04:11:34.864Z,102272.75
2019-03-26T04:14:39.244Z,102274.90
2019-03-26T04:17:43.567Z,102278.92
2019-03-26T04:20:47.951Z,102274.33
2019-03-26T04:23:52.384Z,102276.36
2019-03-26T04:26:56.839Z,102272.98
2019-03-26T04:30:01.233Z,102276.08
2019-03-26T04:33:05.757Z,102286.33
2019-03-26T04:36:24.590Z,102288.59
2019-03-26T04:39:16.280Z,102287.07
2019-03-26T04:42:20.639Z,102287.03
2019-03-26T04:45:25.137Z,102273.94
2019-03-26T04:48:29.490Z,102273.00
2019-03-26T04:51:33.862Z,102270.97
2019-03-26T04:54:38.243Z,102265.88
2019-03-26T04:57:42.672Z,102267.81
2019-03-26T05:00:47.111Z,102267.88
2019-03-26T05:03:51.573Z,102277.52
2019-03-26T05:06:55.929Z,102278.09
2019-03-26T05:10:00.413Z,102282.80
2019-03-26T05:13:04.804Z,102286.03
2019-03-26T05:16:09.150Z,102275.95
2019-03-26T05:19:13.542Z,102278.85
2019-03-26T05:22:24.116Z,102295.41
2019-03-26T05:25:23.982Z,102290.14
2019-03-26T05:28:28.385Z,102270.72
2019-03-26T05:31:32.736Z,102273.27
2019-03-26T05:34:37.188Z,102272.07
2019-03-26T05:37:41.554Z,102260.70
2019-03-26T05:40:45.894Z,102263.37
2019-03-26T05:43:50.271Z,102275.78
2019-03-26T05:46:54.649Z,102272.37
2019-03-26T05:49:59.075Z,102268.87
2019-03-26T05:53:03.448Z,102262.44
2019-03-26T05:56:07.814Z,102256.87
2019-03-26T05:59:12.200Z,102254.53
2019-03-26T06:02:18.040Z,102249.97
2019-03-26T06:05:22.979Z,102257.58
2019-03-26T06:08:27.376Z,102258.38
2019-03-26T06:11:32.091Z,102258.02
2019-03-26T06:14:36.459Z,102243.91
2019-03-26T06:17:41.047Z,102242.41
2019-03-26T06:20:45.494Z,102253.55
2019-03-26T06:23:49.883Z,102251.86
2019-03-26T06:26:54.230Z,102251.59
2019-03-26T06:29:58.718Z,102252.08
2019-03-26T06:33:03.137Z,102248.69
2019-03-26T06:36:08.304Z,102249.06
2019-03-26T06:39:12.678Z,102248.48
2019-03-26T06:42:17.131Z,102242.33
2019-03-26T06:45:21.575Z,102248.02
2019-03-26T06:48:25.942Z,102247.58
2019-03-26T06:51:30.332Z,102254.84
2019-03-26T06:54:34.684Z,102268.64
2019-03-26T06:57:39.478Z,102280.09
2019-03-26T07:00:44.173Z,102277.19
2019-03-26T07:03:52.224Z,102266.16
2019-03-26T07:06:57.918Z,102267.51
2019-03-26T07:10:15.641Z,102254.81
2019-03-26T07:13:20.075Z,102264.14
2019-03-26T07:16:36.324Z,102257.13
2019-03-26T07:19:51.446Z,102251.00
2019-03-26T07:22:59.611Z,102249.71
2019-03-26T07:26:04.735Z,102261.27
2019-03-26T07:29:09.119Z,102272.51
2019-03-26T07:32:13.466Z,102274.64
2019-03-26T07:35:17.807Z,102268.44
2019-03-26T07:38:22.281Z,102284.45
2019-03-26T07:41:26.712Z,102273.33
2019-03-26T07:44:31.062Z,102271.55
2019-03-26T07:47:35.495Z,102269.50
2019-03-26T07:50:39.910Z,102262.65
2019-03-26T07:53:44.349Z,102257.91
2019-03-26T07:56:48.982Z,102243.83
2019-03-26T07:59:53.328Z,102247.37
2019-03-26T08:02:57.694Z,102236.77
2019-03-26T08:06:03.680Z,102237.81
2019-03-26T08:09:08.335Z,102231.73
2019-03-26T08:12:12.757Z,102235.53
2019-03-26T08:15:20.111Z,102234.30
2019-03-26T08:18:23.233Z,102243.94
2019-03-26T08:21:27.587Z,102241.72
2019-03-26T08:24:31.962Z,102239.17
2019-03-26T08:27:36.690Z,102256.80
2019-03-26T08:30:41.133Z,102264.20
2019-03-26T08:33:45.536Z,102258.06
2019-03-26T08:36:49.924Z,102250.33
2019-03-26T08:39:54.283Z,102245.41
2019-03-26T08:42:58.662Z,102252.33
2019-03-26T08:46:03.178Z,102240.41
2019-03-26T08:49:07.543Z,102242.28
2019-03-26T08:52:12.050Z,102235.88
2019-03-26T08:55:16.585Z,102238.56
2019-03-26T08:58:20.944Z,102250.48
2019-03-26T09:01:25.400Z,102248.27
2019-03-26T09:04:29.828Z,102240.42
2019-03-26T09:07:34.263Z,102251.07
2019-03-26T09:10:46.627Z,102250.17
2019-03-26T09:13:44.864Z,102255.03
2019-03-26T09:16:49.234Z,102269.06
2019-03-26T09:19:53.759Z,102267.23
2019-03-26T09:22:58.358Z,102268.46
2019-03-26T09:26:02.798Z,102276.55
2019-03-26T09:29:07.374Z,102267.73
2019-03-26T09:32:11.822Z,102272.69
2019-03-26T09:35:18.105Z,102279.20
2019-03-26T09:38:22.437Z,102266.47
2019-03-26T09:41:26.793Z,102265.19
2019-03-26T09:44:31.138Z,102267.74
2019-03-26T09:47:35.473Z,102270.90
2019-03-26T09:50:40.017Z,102267.37
2019-03-26T09:53:44.520Z,102276.64
2019-03-26T09:56:48.875Z,102282.35
2019-03-26T09:59:53.217Z,102306.56
2019-03-26T10:02:57.593Z,102287.21
2019-03-26T10:06:01.950Z,102293.83
2019-03-26T10:09:07.918Z,102301.30
2019-03-26T10:12:12.316Z,102292.06
2019-03-26T10:15:16.937Z,102294.21
2019-03-26T10:18:21.358Z,102289.46
2019-03-26T10:21:25.702Z,102292.03
2019-03-26T10:24:30.049Z,102295.84
2019-03-26T10:27:35.255Z,102296.80
2019-03-26T10:30:40.145Z,102293.80
2019-03-26T10:33:44.584Z,102291.20
2019-03-26T10:36:49.093Z,102304.45
2019-03-26T10:39:53.470Z,102299.62
2019-03-26T10:42:57.855Z,102291.61
2019-03-26T10:46:02.175Z,102295.55
2019-03-26T10:49:06.603Z,102298.24
2019-03-26T10:52:11.046Z,102313.73
2019-03-26T10:55:15.502Z,102296.58
2019-03-26T10:58:19.858Z,102286.38
2019-03-26T11:01:24.277Z,102298.75
2019-03-26T11:04:28.659Z,102291.14
2019-03-26T11:07:33.104Z,102298.69
2019-03-26T11:10:37.645Z,102304.53
2019-03-26T11:13:41.979Z,102295.66
2019-03-26T11:16:46.390Z,102291.67
2019-03-26T11:19:50.736Z,102293.04
2019-03-26T11:22:55.257Z,102295.72
2019-03-26T11:25:59.604Z,102294.41
2019-03-26T11:29:04.042Z,102292.64
2019-03-26T11:32:08.539Z,102297.03
2019-03-26T11:35:13.172Z,102296.16
2019-03-26T11:38:18.588Z,102301.02
2019-03-26T11:41:38.254Z,102314.26
2019-03-26T11:44:42.632Z,102297.89
2019-03-26T11:47:47.126Z,102301.86
2019-03-26T11:50:51.511Z,102294.36
2019-03-26T11:53:55.866Z,102300.98
2019-03-26T11:57:00.328Z,102287.72
2019-03-26T12:00:06.132Z,102294.37
2019-03-26T12:03:11.456Z,102286.38
2019-03-26T12:06:15.879Z,102302.71
2019-03-26T12:09:20.237Z,102302.27
2019-03-26T12:12:24.625Z,102300.45
2019-03-26T12:15:29.199Z,102313.36
2019-03-26T12:18:33.559Z,102312.48
2019-03-26T12:21:38.054Z,102313.79
2019-03-26T12:24:42.419Z,102332.30
2019-03-26T12:27:46.865Z,102346.41
2019-03-26T12:30:51.279Z,102340.98
2019-03-26T12:33:55.765Z,102344.90
2019-03-26T12:37:00.190Z,102343.13
2019-03-26T12:40:05.572Z,102339.23
2019-03-26T12:43:10.054Z,102343.27
2019-03-26T12:46:14.565Z,102359.27
2019-03-26T12:49:18.926Z,102361.04
2019-03-26T12:52:23.309Z,102344.66
2019-03-26T12:55:27.738Z,102348.27
2019-03-26T12:58:36.240Z,102346.36
2019-03-26T13:01:38.187Z,102357.81
2019-03-26T13:04:42.620Z,102358.22
2019-03-26T13:07:47.087Z,102359.09
2019-03-26T13:10:53.717Z,102361.36
2019-03-26T13:13:57.588Z,102351.24
2019-03-26T13:17:02.047Z,102358.28
2019-03-26T13:20:06.856Z,102360.55
2019-03-26T13:23:11.262Z,102366.37
2019-03-26T13:26:15.754Z,102369.06
2019-03-26T13:29:20.135Z,102370.83
2019-03-26T13:32:24.505Z,102370.84
2019-03-26T13:35:29.018Z,102376.10
2019-03-26T13:38:33.376Z,102386.27
2019-03-26T13:41:37.814Z,102387.62
2019-03-26T13:44:42.229Z,102377.02
2019-03-26T13:47:46.612Z,102374.37
2019-03-26T13:50:51.019Z,102385.40
2019-03-26T13:53:55.398Z,102378.36
2019-03-26T13:56:59.737Z,102386.33
2019-03-26T14:00:04.920Z,102383.15
2019-03-26T14:03:09.474Z,102393.33
2019-03-26T14:06:13.797Z,102391.16
2019-03-26T14:09:18.180Z,102395.17
2019-03-26T14:12:22.702Z,102394.70
2019-03-26T14:15:27.051Z,102401.28
2019-03-26T14:18:31.437Z,102403.91
2019-03-26T14:21:35.765Z,102398.60
2019-03-26T14:24:40.133Z,102394.62
2019-03-26T14:27:44.482Z,102397.26
2019-03-26T14:30:48.886Z,102413.15
2019-03-26T14:33:53.203Z,102406.84
2019-03-26T14:36:57.640Z,102405.56
2019-03-26T14:40:02.076Z,102406.37
2019-03-26T14:43:07.312Z,102398.89
2019-03-26T14:46:11.748Z,102405.95
2019-03-26T14:49:16.139Z,102404.60
2019-03-26T14:52:20.559Z,102414.83
2019-03-26T14:55:24.938Z,102425.36
2019-03-26T14:58:29.381Z,102411.31
2019-03-26T15:01:33.717Z,102412.58
2019-03-26T15:04:38.057Z,102419.27
2019-03-26T15:07:42.420Z,102420.14
2019-03-26T15:10:46.767Z,102429.92
2019-03-26T15:13:51.161Z,102432.56
2019-03-26T15:16:55.572Z,102421.03
2019-03-26T15:19:59.968Z,102420.20
2019-03-26T15:23:04.791Z,102425.12
2019-03-26T15:26:09.127Z,102427.73
2019-03-26T15:29:13.566Z,102430.87
2019-03-26T15:32:17.907Z,102419.26
2019-03-26T15:35:22.345Z,102431.70
2019-03-26T15:38:26.794Z,102434.82
2019-03-26T15:41:31.131Z,102433.45
2019-03-26T15:44:35.484Z,102437.89
2019-03-26T15:47:39.835Z,102434.28
2019-03-26T15:50:46.630Z,102432.09
2019-03-26T15:53:50.962Z,102439.64
2019-03-26T15:56:55.396Z,102448.33
2019-03-26T15:59:59.723Z,102446.62
2019-03-26T16:03:04.233Z,102446.09
2019-03-26T16:06:08.593Z,102453.52
2019-03-26T16:09:13.019Z,102454.53
2019-03-26T16:12:17.367Z,102445.23
2019-03-26T16:15:21.733Z,102447.88
2019-03-26T16:18:26.059Z,102445.75
2019-03-26T16:21:30.505Z,102456.25
2019-03-26T16:24:34.862Z,102454.45
2019-03-26T16:27:39.240Z,102455.89
2019-03-26T16:30:43.577Z,102455.39
2019-03-26T16:33:47.963Z,102443.83
2019-03-26T16:36:59.357Z,102454.41
2019-03-26T16:39:58.372Z,102458.42
2019-03-26T16:43:02.739Z,102459.67
2019-03-26T16:46:07.078Z,102461.88
2019-03-26T16:49:11.440Z,102470.30
2019-03-26T16:52:15.772Z,102463.25
2019-03-26T16:55:20.128Z,102467.22
2019-03-26T16:58:24.460Z,102478.19
2019-03-26T17:01:28.901Z,102481.84
2019-03-26T17:04:33.324Z,102483.38
2019-03-26T17:07:37.734Z,102487.00
2019-03-26T17:10:42.066Z,102472.39
2019-03-26T17:13:46.385Z,102476.77
2019-03-26T17:16:50.706Z,102481.09
2019-03-26T17:19:55.505Z,102481.63
2019-03-26T17:22:59.919Z,102476.91
2019-03-26T17:26:04.342Z,102478.09
2019-03-26T17:29:08.768Z,102482.48
2019-03-26T17:32:13.291Z,102495.72
2019-03-26T17:35:17.635Z,102485.94
2019-03-26T17:38:22.004Z,102480.52
2019-03-26T17:41:26.436Z,102473.45
2019-03-26T17:44:30.843Z,102484.38
2019-03-26T17:47:35.196Z,102491.08
2019-03-26T17:50:39.561Z,102496.17
2019-03-26T17:53:43.901Z,102503.73
2019-03-26T17:56:48.257Z,102503.19
2019-03-26T17:59:52.583Z,102500.97
2019-03-26T18:02:56.943Z,102507.58
2019-03-26T18:06:01.382Z,102503.16
2019-03-26T18:09:07.487Z,102515.00
2019-03-26T18:12:11.929Z,102524.17
2019-03-26T18:15:16.315Z,102522.98
2019-03-26T18:18:20.722Z,102523.44
2019-03-26T18:21:25.061Z,102527.09
2019-03-26T18:24:29.403Z,102534.81
2019-03-26T18:27:33.800Z,102541.05
2019-03-26T18:30:38.251Z,102545.39
2019-03-26T18:33:42.584Z,102548.98
2019-03-26T18:36:46.946Z,102552.53
2019-03-26T18:39:51.277Z,102553.31
2019-03-26T18:42:55.618Z,102557.68
2019-03-26T18:45:59.961Z,102569.13
2019-03-26T18:49:04.410Z,102564.86
2019-03-26T18:52:08.782Z,102559.84
2019-03-26T18:55:13.266Z,102564.67
2019-03-26T18:58:17.695Z,102572.28
2019-03-26T19:01:22.131Z,102573.52
2019-03-26T19:04:26.496Z,102570.95
2019-03-26T19:07:30.849Z,102562.84
2019-03-26T19:10:36.449Z,102560.72
2019-03-26T19:13:40.866Z,102559.36
2019-03-26T19:16:45.216Z,102563.94
2019-03-26T19:19:49.615Z,102565.16
2019-03-26T19:22:53.979Z,102562.14
2019-03-26T19:25:58.389Z,102571.94
2019-03-26T19:29:02.725Z,102572.84
2019-03-26T19:32:07.158Z,102579.38
2019-03-26T19:35:11.968Z,102586.22
2019-03-26T19:38:16.428Z,102590.02
2019-03-26T19:41:20.787Z,102593.30
2019-03-26T19:44:25.166Z,102584.60
2019-03-26T19:47:29.546Z,102593.78
2019-03-26T19:50:33.903Z,102592.01
2019-03-26T19:53:38.243Z,102599.52
2019-03-26T19:56:42.629Z,102601.78
2019-03-26T19:59:46.977Z,102597.71
2019-03-26T20:02:51.435Z,102609.15
2019-03-26T20:05:55.770Z,102612.63
2019-03-26T20:09:00.131Z,102609.84
2019-03-26T20:12:04.582Z,102612.77
2019-03-26T20:15:09.826Z,102605.39
2019-03-26T20:18:14.310Z,102605.70
2019-03-26T20:21:18.722Z,102607.69
2019-03-26T20:24:23.132Z,102600.59
2019-03-26T20:27:27.629Z,102606.41
2019-03-26T20:30:32.054Z,102611.38
2019-03-26T20:33:36.369Z,102609.49
2019-03-26T20:36:40.831Z,102618.92
2019-03-26T20:39:45.152Z,102613.42
2019-03-26T20:42:49.580Z,102615.93
2019-03-26T20:45:53.981Z,102612.94
2019-03-26T20:48:58.347Z,102608.17
2019-03-26T20:52:02.752Z,102602.69
2019-03-26T20:55:08.033Z,102604.45
2019-03-26T20:58:12.495Z,102602.81
2019-03-26T21:01:16.827Z,102611.34
2019-03-26T21:04:21.262Z,102615.34
2019-03-26T21:07:25.592Z,102621.98
2019-03-26T21:10:29.925Z,102624.59
2019-03-26T21:13:34.305Z,102622.36
2019-03-26T21:16:38.736Z,102624.59
2019-03-26T21:19:43.107Z,102626.44
2019-03-26T21:22:47.452Z,102620.63
2019-03-26T21:25:51.785Z,102622.36
2019-03-26T21:28:56.113Z,102619.61
2019-03-26T21:32:00.529Z,102622.06
2019-03-26T21:35:05.511Z,102620.81
2019-03-26T21:38:09.871Z,102635.57
2019-03-26T21:41:14.215Z,102637.00
2019-03-26T21:44:18.599Z,102636.78
2019-03-26T21:47:22.976Z,102640.63
2019-03-26T21:50:27.594Z,102637.88
2019-03-26T21:53:32.108Z,102639.42
2019-03-26T21:56:36.859Z,102633.77
2019-03-26T21:59:41.255Z,102638.70
2019-03-26T22:02:45.880Z,102652.41
2019-03-26T22:05:50.255Z,102651.36
2019-03-26T22:08:54.645Z,102645.12
2019-03-26T22:11:59.194Z,102650.90
2019-03-26T22:15:03.707Z,102650.94
2019-03-26T22:18:08.232Z,102650.56
2019-03-26T22:21:12.603Z,102644.18
2019-03-26T22:24:17.448Z,102644.41
2019-03-26T22:27:21.803Z,102648.26
2019-03-26T22:30:26.561Z,102659.50
2019-03-26T22:33:31.061Z,102656.64
2019-03-26T22:36:35.536Z,102659.05
2019-03-26T22:39:40.172Z,102665.31
2019-03-26T22:42:44.750Z,102665.84
2019-03-26T22:45:49.307Z,102669.43
2019-03-26T22:48:53.893Z,102664.03
2019-03-26T22:51:59.154Z,102660.34
2019-03-26T22:55:03.843Z,102671.40
2019-03-26T22:58:08.181Z,102668.00
2019-03-26T23:01:12.864Z,102676.30
2019-03-26T23:04:20.032Z,102686.45
2019-03-26T23:07:24.295Z,102680.75
2019-03-26T23:10:29.091Z,102679.70
2019-03-26T23:13:33.754Z,102686.84
2019-03-26T23:16:38.157Z,102682.64
2019-03-26T23:19:42.579Z,102683.09
2019-03-26T23:22:47.203Z,102697.02
2019-03-26T23:25:51.538Z,102699.37
2019-03-26T23:28:55.889Z,102689.41
2019-03-26T23:32:00.400Z,102683.75
2019-03-26T23:35:05.029Z,102681.52
2019-03-26T23:38:09.583Z,102687.55
2019-03-26T23:41:14.023Z,102692.02
2019-03-26T23:44:25.609Z,102695.94
2019-03-26T23:47:24.461Z,102692.88
2019-03-26T23:50:28.913Z,102690.31
2019-03-26T23:53:33.277Z,102685.22
2019-03-26T23:56:37.676Z,102678.12
2019-03-26T23:59:42.082Z,102678.57
